Flight Track Log - Related Links

Times and Time Zones

All times are in EST time to prevent confusion due to time zone crossing. See the SWA2521 flight status page for this flight to view local times or setup timezone preferences in your user account.

Time Position Orientation Groundspeed Altitude Reporting Facility
EST Latitude Longitude Course Direction KTS MPH feet Rate Location/Type
Fri 10:30:29 PM 39.1667 -76.7667 270° West 231 266 2,900  Level Potomac TRACON
Fri 10:32:12 PM 39.1042 -76.6964 139° Southeast 150 173 7,600 2,429 Climbing Washington Center
Fri 10:33:12 PM 39.1156 -76.6056 81° East 170 196 9,500 1,550 Climbing Washington Center
Fri 10:34:12 PM 39.1267 -76.5014 82° East 243 280 10,700 1,800 Climbing Washington Center
Fri 10:35:00 PM 39.1500 -76.4297 270° West  Level FlightAware Approximate
Fri 10:35:12 PM 39.1358 -76.3811 84° East 292 336 13,100  Level Washington Center
Fri 10:36:12 PM 39.1511 -76.2553 81° East 331 381 15,300 2,250 Climbing Washington Center
Fri 10:37:12 PM 39.1664 -76.1136 82° East 357 411 17,600 1,900 Climbing Washington Center
Fri 10:38:12 PM 39.1817 -75.9797 82° East 362 417 19,100 1,800 Climbing Washington Center
Fri 10:39:12 PM 39.2131 -75.8514 72° East 374 430 21,200 1,450 Climbing Washington Center
Fri 10:40:12 PM 39.2883 -75.7553 45° Northeast 356 410 22,000 400 Climbing Washington Center
Fri 10:41:12 PM 39.3636 -75.6586 45° Northeast 366 421 22,000  Level Washington Center
Fri 10:42:12 PM 39.4406 -75.5619 44° Northeast 372 428 22,000 700 Level Washington Center
Fri 10:43:12 PM 39.5156 -75.4625 46° Northeast 377 434 23,400 1,550 Climbing Washington Center
Fri 10:44:12 PM 39.5944 -75.3653 44° Northeast 383 441 25,100 1,950 Climbing Washington Center
Fri 10:45:12 PM 39.6881 -75.2950 30° Northeast 383 441 27,300 2,250 Climbing Washington Center
Fri 10:46:12 PM 39.7797 -75.2325 28° Northeast 378 435 29,600 2,050 Climbing Washington Center
Fri 10:47:12 PM 39.8692 -75.1725 27° Northeast 366 421 31,400 1,554 Climbing Washington Center
Fri 10:48:04 PM 39.9361 -75.1025 39° Northeast 373 429 32,500 1,487 Climbing New York Center
Fri 10:49:05 PM 40.0178 -75.0289 35° Northeast 354 407 34,200 1,240 Climbing New York Center
Fri 10:50:05 PM 40.1050 -74.9856 21° North 336 387 35,000 397 Climbing New York Center
Fri 10:51:06 PM 40.1942 -74.9392 22° Northeast 331 381 35,000  Level New York Center
Fri 10:52:05 PM 40.2875 -74.8931 21° North 343 395 35,000  Level New York Center
Fri 10:53:05 PM 40.3828 -74.8525 18° North 354 407 35,000  Level New York Center
Fri 10:54:05 PM 40.4778 -74.8117 18° North 354 407 35,000  Level New York Center
Fri 10:55:05 PM 40.5731 -74.7708 18° North 354 407 35,000  Level New York Center
Fri 10:56:04 PM 40.6681 -74.7300 18° North 354 407 35,000  Level New York Center
Fri 10:58:21 PM 40.8783 -74.6389 18° North 354 407 35,000  Level Boston Center
Fri 10:59:21 PM 40.9731 -74.5953 19° North 354 407 35,000  Level Boston Center
Fri 11:00:21 PM 41.0761 -74.5492 19° North 354 407 35,000  Level Boston Center
Fri 11:01:21 PM 41.1747 -74.5083 17° North 359 413 35,000  Level Boston Center
Fri 11:02:21 PM 41.2628 -74.4753 16° North 359 413 35,000  Level Boston Center
Fri 11:03:21 PM 41.3575 -74.4342 18° North 364 419 35,000  Level Boston Center
Fri 11:04:21 PM 41.4519 -74.3872 20° North 364 419 35,000  Level Boston Center
Fri 11:05:21 PM 41.5506 -74.3486 16° North 364 419 35,000 -500 Level Boston Center
Fri 11:06:21 PM 41.6536 -74.3017 19° North 364 419 34,000 -1,050 Descending Boston Center
Fri 11:07:21 PM 41.7397 -74.2625 19° North 364 419 32,900 -1,050 Descending Boston Center
Fri 11:08:21 PM 41.8383 -74.2178 19° North 357 411 31,900 -950 Descending Boston Center
Fri 11:09:21 PM 41.9328 -74.1758 18° North 352 405 31,000 -450 Descending Boston Center
Fri 11:10:21 PM 41.9950 -74.0631 53° Northeast 357 411 31,000  Level Boston Center
Fri 11:11:21 PM 42.0550 -73.9389 57° Northeast 357 411 31,000 -750 Level Boston Center
Fri 11:12:21 PM 42.1086 -73.8169 59° Northeast 370 426 29,500 -1,900 Descending Boston Center
Fri 11:13:21 PM 42.1683 -73.6922 57° Northeast 382 440 27,200 -1,750 Descending Boston Center
Fri 11:14:21 PM 42.2239 -73.5700 58° Northeast 387 445 26,000 -1,300 Descending Boston Center
Fri 11:15:21 PM 42.2814 -73.4419 59° Northeast 387 445 24,600 -1,450 Descending Boston Center
Fri 11:16:21 PM 42.3386 -73.3136 59° Northeast 387 445 23,100 -1,450 Descending Boston Center
Fri 11:17:21 PM 42.3958 -73.1850 59° Northeast 393 452 21,700 -1,300 Descending Boston Center
Fri 11:18:21 PM 42.4528 -73.0592 58° Northeast 393 452 20,500 -1,100 Descending Boston Center
Fri 11:19:21 PM 42.5078 -72.9358 59° Northeast 387 445 19,500 -750 Descending Boston Center
Fri 11:20:21 PM 42.5603 -72.8206 58° Northeast 371 427 19,000 -450 Descending Boston Center
Fri 11:21:21 PM 42.6022 -72.7081 63° Northeast 359 413 18,600 -550 Descending Boston Center
Fri 11:22:21 PM 42.6400 -72.5783 68° East 359 413 17,900 -900 Descending Boston Center
Fri 11:23:21 PM 42.6756 -72.4514 69° East 359 413 16,800 -1,350 Descending Boston Center
Fri 11:24:21 PM 42.7089 -72.3328 69° East 346 398 15,200 -1,850 Descending Boston Center
Fri 11:25:21 PM 42.7400 -72.2111 71° East 341 392 13,100 -2,150 Descending Boston Center
Fri 11:26:21 PM 42.7769 -72.0836 68° East 330 380 10,900 -1,550 Descending Boston Center
Fri 11:27:21 PM 42.8039 -71.9872 69° East 312 359 10,000 -1,050 Descending Boston Center
Fri 11:28:21 PM 42.8222 -71.8825 77° East 269 310 8,800 -1,600 Descending Boston Center
Fri 11:29:21 PM 42.8258 -71.7975 87° East 251 289 6,800 -1,750 Descending Boston Center
Fri 11:30:21 PM 42.8294 -71.7211 86° East 251 289 5,300 -900 Descending Boston Center
Fri 11:31:21 PM 42.8331 -71.6219 87° East 228 262 5,000 -600 Descending Boston Center
Fri 11:32:21 PM 42.8367 -71.5369 87° East 206 237 4,100 -1,000 Descending Boston Center
Fri 11:33:21 PM 42.8381 -71.4717 88° East 194 223 3,000 -1,050 Descending Boston Center
Fri 11:34:21 PM 42.8500 -71.4092 75° East 165 190 2,000 -950 Descending Boston Center
Fri 11:35:21 PM 42.8814 -71.4058 North 113 130 1,100 -800 Descending Boston Center
Fri 11:36:21 PM 42.9147 -71.4225 340° North 102 117 400 -400 Descending Boston Center
Fri 11:37:21 PM 42.9378 -71.4247 356° North 102 117 300 4,300 Descending Boston Center
Fri 11:38:21 PM 42.9628 -71.4300 351° North 102 117 9,000 4,350 Climbing Boston Center
Fri 11:39:21 PM 42.9900 -71.4381 348° North 102 117 9,000  Level Boston Center
Fri 11:41:00 PM 42.9328 -71.4358 316° Northwest  Level Estimated
Fri 11:48:00 PM 42.9328 -71.4358 316° Northwest  Level Estimated
Fri 11:49:00 PM 42.9328 -71.4358 316° Northwest  Level Estimated
Fri 11:50:00 PM 42.9328 -71.4358 316° Northwest  Level Estimated

Login

Don't have an account? Register now (free) for customized features, flight alerts, and more!